sensor_id;sensor_type;location;lat;lon;timestamp;temperature;humidity
15879;DHT22;61999;51.514;14.614;2022-12-29T00:01:09;3.10;59.30
15879;DHT22;61999;51.514;14.614;2022-12-29T00:03:37;3.10;59.20
15879;DHT22;61999;51.514;14.614;2022-12-29T00:06:07;3.30;59.00
15879;DHT22;61999;51.514;14.614;2022-12-29T00:08:35;3.30;59.10
15879;DHT22;61999;51.514;14.614;2022-12-29T00:11:10;3.40;59.00
15879;DHT22;61999;51.514;14.614;2022-12-29T00:13:40;3.40;58.70
15879;DHT22;61999;51.514;14.614;2022-12-29T00:16:27;3.30;59.00
15879;DHT22;61999;51.514;14.614;2022-12-29T00:18:55;3.20;59.00
15879;DHT22;61999;51.514;14.614;2022-12-29T00:21:25;3.30;59.00
15879;DHT22;61999;51.514;14.614;2022-12-29T00:24:14;3.40;58.50
15879;DHT22;61999;51.514;14.614;2022-12-29T00:27:11;3.50;58.10
15879;DHT22;61999;51.514;14.614;2022-12-29T00:29:57;3.40;58.30
15879;DHT22;61999;51.514;14.614;2022-12-29T00:32:43;3.50;58.20
15879;DHT22;61999;51.514;14.614;2022-12-29T00:35:30;3.40;58.40
15879;DHT22;61999;51.514;14.614;2022-12-29T00:38:05;3.50;58.30
15879;DHT22;61999;51.514;14.614;2022-12-29T00:40:52;3.40;58.30
15879;DHT22;61999;51.514;14.614;2022-12-29T00:43:38;3.20;58.50
15879;DHT22;61999;51.514;14.614;2022-12-29T00:46:23;3.30;58.30
15879;DHT22;61999;51.514;14.614;2022-12-29T00:48:51;3.30;58.40
15879;DHT22;61999;51.514;14.614;2022-12-29T00:51:37;3.30;58.10
15879;DHT22;61999;51.514;14.614;2022-12-29T00:54:06;3.30;58.10
15879;DHT22;61999;51.514;14.614;2022-12-29T00:56:34;3.20;58.20
15879;DHT22;61999;51.514;14.614;2022-12-29T00:59:04;3.40;58.40
15879;DHT22;61999;51.514;14.614;2022-12-29T01:01:33;3.10;58.80
15879;DHT22;61999;51.514;14.614;2022-12-29T01:04:02;3.20;59.50
15879;DHT22;61999;51.514;14.614;2022-12-29T01:06:31;3.30;59.90
15879;DHT22;61999;51.514;14.614;2022-12-29T01:09:00;3.20;59.90
15879;DHT22;61999;51.514;14.614;2022-12-29T01:11:47;3.20;60.50
15879;DHT22;61999;51.514;14.614;2022-12-29T01:14:15;3.10;61.00
15879;DHT22;61999;51.514;14.614;2022-12-29T01:16:43;3.00;61.50
15879;DHT22;61999;51.514;14.614;2022-12-29T01:19:13;3.00;61.80
15879;DHT22;61999;51.514;14.614;2022-12-29T01:21:42;2.90;62.40
15879;DHT22;61999;51.514;14.614;2022-12-29T01:24:10;2.90;62.30
15879;DHT22;61999;51.514;14.614;2022-12-29T01:26:38;2.90;63.00
15879;DHT22;61999;51.514;14.614;2022-12-29T01:29:07;3.10;62.90
15879;DHT22;61999;51.514;14.614;2022-12-29T01:31:36;3.00;63.10
15879;DHT22;61999;51.514;14.614;2022-12-29T01:34:04;3.10;63.50
15879;DHT22;61999;51.514;14.614;2022-12-29T01:36:33;2.90;63.80
15879;DHT22;61999;51.514;14.614;2022-12-29T01:39:01;2.80;64.60
15879;DHT22;61999;51.514;14.614;2022-12-29T01:41:29;2.90;64.60
15879;DHT22;61999;51.514;14.614;2022-12-29T01:43:59;2.80;64.40
15879;DHT22;61999;51.514;14.614;2022-12-29T01:46:31;2.60;65.10
15879;DHT22;61999;51.514;14.614;2022-12-29T01:49:08;2.60;65.20
15879;DHT22;61999;51.514;14.614;2022-12-29T01:51:42;2.60;66.00
15879;DHT22;61999;51.514;14.614;2022-12-29T01:54:17;2.70;64.70
15879;DHT22;61999;51.514;14.614;2022-12-29T01:56:52;2.70;65.10
15879;DHT22;61999;51.514;14.614;2022-12-29T01:59:28;2.50;65.60
15879;DHT22;61999;51.514;14.614;2022-12-29T02:02:01;2.70;65.00
15879;DHT22;61999;51.514;14.614;2022-12-29T02:04:32;2.60;65.60
15879;DHT22;61999;51.514;14.614;2022-12-29T02:07:02;2.70;65.20
15879;DHT22;61999;51.514;14.614;2022-12-29T02:09:36;2.60;65.40
15879;DHT22;61999;51.514;14.614;2022-12-29T02:12:04;2.50;65.70
15879;DHT22;61999;51.514;14.614;2022-12-29T02:14:32;2.50;65.40
15879;DHT22;61999;51.514;14.614;2022-12-29T02:17:08;2.70;64.70
15879;DHT22;61999;51.514;14.614;2022-12-29T02:23:19;2.70;64.30
15879;DHT22;61999;51.514;14.614;2022-12-29T02:26:16;2.70;63.50
15879;DHT22;61999;51.514;14.614;2022-12-29T02:32:19;2.60;64.70
15879;DHT22;61999;51.514;14.614;2022-12-29T02:34:58;2.80;64.20
15879;DHT22;61999;51.514;14.614;2022-12-29T02:37:40;2.70;64.60
15879;DHT22;61999;51.514;14.614;2022-12-29T02:40:19;2.80;64.60
15879;DHT22;61999;51.514;14.614;2022-12-29T02:42:59;2.80;64.40
15879;DHT22;61999;51.514;14.614;2022-12-29T02:45:41;2.80;64.90
15879;DHT22;61999;51.514;14.614;2022-12-29T02:48:19;2.60;65.10
15879;DHT22;61999;51.514;14.614;2022-12-29T02:50:59;2.70;65.00
15879;DHT22;61999;51.514;14.614;2022-12-29T02:53:30;2.50;65.60
15879;DHT22;61999;51.514;14.614;2022-12-29T02:56:18;2.50;66.10
15879;DHT22;61999;51.514;14.614;2022-12-29T02:58:46;2.60;65.10
15879;DHT22;61999;51.514;14.614;2022-12-29T03:01:23;2.60;64.90
15879;DHT22;61999;51.514;14.614;2022-12-29T03:04:09;2.50;65.50
15879;DHT22;61999;51.514;14.614;2022-12-29T03:06:52;2.70;64.90
15879;DHT22;61999;51.514;14.614;2022-12-29T03:09:35;2.60;64.50
15879;DHT22;61999;51.514;14.614;2022-12-29T03:12:25;2.60;64.70
15879;DHT22;61999;51.514;14.614;2022-12-29T03:15:21;2.60;64.80
15879;DHT22;61999;51.514;14.614;2022-12-29T03:18:15;2.80;64.40
15879;DHT22;61999;51.514;14.614;2022-12-29T03:20:53;2.70;64.80
15879;DHT22;61999;51.514;14.614;2022-12-29T03:23:27;2.90;64.00
15879;DHT22;61999;51.514;14.614;2022-12-29T03:26:00;3.00;63.80
15879;DHT22;61999;51.514;14.614;2022-12-29T03:28:36;2.70;64.90
15879;DHT22;61999;51.514;14.614;2022-12-29T03:31:08;2.60;64.70
15879;DHT22;61999;51.514;14.614;2022-12-29T03:33:37;2.60;65.00
15879;DHT22;61999;51.514;14.614;2022-12-29T03:36:11;2.70;64.10
15879;DHT22;61999;51.514;14.614;2022-12-29T03:38:48;2.70;64.20
15879;DHT22;61999;51.514;14.614;2022-12-29T03:41:26;2.90;64.00
15879;DHT22;61999;51.514;14.614;2022-12-29T03:43:57;2.80;64.10
15879;DHT22;61999;51.514;14.614;2022-12-29T03:46:25;3.10;63.60
15879;DHT22;61999;51.514;14.614;2022-12-29T03:48:53;3.10;63.20
15879;DHT22;61999;51.514;14.614;2022-12-29T03:51:22;3.00;63.20
15879;DHT22;61999;51.514;14.614;2022-12-29T03:53:51;3.10;63.60
15879;DHT22;61999;51.514;14.614;2022-12-29T03:56:19;3.30;62.70
15879;DHT22;61999;51.514;14.614;2022-12-29T03:58:47;3.00;62.90
15879;DHT22;61999;51.514;14.614;2022-12-29T04:01:15;3.00;63.50
15879;DHT22;61999;51.514;14.614;2022-12-29T04:03:43;3.10;63.10
15879;DHT22;61999;51.514;14.614;2022-12-29T04:06:10;3.10;62.60
15879;DHT22;61999;51.514;14.614;2022-12-29T04:08:40;3.00;62.60
15879;DHT22;61999;51.514;14.614;2022-12-29T04:11:08;3.00;62.90
15879;DHT22;61999;51.514;14.614;2022-12-29T04:13:36;3.00;62.90
15879;DHT22;61999;51.514;14.614;2022-12-29T04:16:07;3.00;62.70
15879;DHT22;61999;51.514;14.614;2022-12-29T04:18:35;2.90;62.90
15879;DHT22;61999;51.514;14.614;2022-12-29T04:21:03;2.90;63.00
15879;DHT22;61999;51.514;14.614;2022-12-29T04:23:33;2.90;62.60
15879;DHT22;61999;51.514;14.614;2022-12-29T04:26:05;2.70;63.00
15879;DHT22;61999;51.514;14.614;2022-12-29T04:28:35;2.80;63.20
15879;DHT22;61999;51.514;14.614;2022-12-29T04:31:04;3.00;62.40
15879;DHT22;61999;51.514;14.614;2022-12-29T04:33:33;2.80;62.70
15879;DHT22;61999;51.514;14.614;2022-12-29T04:36:01;2.80;62.80
15879;DHT22;61999;51.514;14.614;2022-12-29T04:38:29;2.90;62.80
15879;DHT22;61999;51.514;14.614;2022-12-29T04:40:59;3.00;62.40
15879;DHT22;61999;51.514;14.614;2022-12-29T04:43:29;3.20;61.30
15879;DHT22;61999;51.514;14.614;2022-12-29T04:45:57;3.10;61.70
15879;DHT22;61999;51.514;14.614;2022-12-29T04:48:24;3.20;61.70
15879;DHT22;61999;51.514;14.614;2022-12-29T04:50:52;3.40;61.30
15879;DHT22;61999;51.514;14.614;2022-12-29T04:53:20;3.30;61.20
15879;DHT22;61999;51.514;14.614;2022-12-29T04:55:49;3.30;61.10
15879;DHT22;61999;51.514;14.614;2022-12-29T04:58:18;3.40;60.70
15879;DHT22;61999;51.514;14.614;2022-12-29T05:00:49;3.50;60.00
15879;DHT22;61999;51.514;14.614;2022-12-29T05:03:18;3.20;60.80
15879;DHT22;61999;51.514;14.614;2022-12-29T05:05:46;3.30;60.30
15879;DHT22;61999;51.514;14.614;2022-12-29T05:08:14;3.20;61.00
15879;DHT22;61999;51.514;14.614;2022-12-29T05:10:44;3.30;60.50
15879;DHT22;61999;51.514;14.614;2022-12-29T05:13:12;3.20;60.50
15879;DHT22;61999;51.514;14.614;2022-12-29T05:15:40;3.30;60.10
15879;DHT22;61999;51.514;14.614;2022-12-29T05:18:10;3.30;60.90
15879;DHT22;61999;51.514;14.614;2022-12-29T05:20:38;3.40;59.80
15879;DHT22;61999;51.514;14.614;2022-12-29T05:23:05;3.30;60.30
15879;DHT22;61999;51.514;14.614;2022-12-29T05:25:33;3.20;60.40
15879;DHT22;61999;51.514;14.614;2022-12-29T05:28:01;3.30;60.30
15879;DHT22;61999;51.514;14.614;2022-12-29T05:30:29;3.40;60.40
15879;DHT22;61999;51.514;14.614;2022-12-29T05:32:57;3.40;60.20
15879;DHT22;61999;51.514;14.614;2022-12-29T05:35:27;3.40;60.30
15879;DHT22;61999;51.514;14.614;2022-12-29T05:37:55;3.40;60.20
15879;DHT22;61999;51.514;14.614;2022-12-29T05:40:22;3.50;60.10
15879;DHT22;61999;51.514;14.614;2022-12-29T05:42:50;3.50;61.10
15879;DHT22;61999;51.514;14.614;2022-12-29T05:45:18;3.20;61.60
15879;DHT22;61999;51.514;14.614;2022-12-29T05:47:46;3.40;62.40
15879;DHT22;61999;51.514;14.614;2022-12-29T05:50:14;3.20;63.40
15879;DHT22;61999;51.514;14.614;2022-12-29T05:52:44;3.20;64.00
15879;DHT22;61999;51.514;14.614;2022-12-29T05:55:12;3.20;64.50
15879;DHT22;61999;51.514;14.614;2022-12-29T05:57:40;3.20;64.40
15879;DHT22;61999;51.514;14.614;2022-12-29T06:00:09;3.10;64.10
15879;DHT22;61999;51.514;14.614;2022-12-29T06:02:38;3.30;63.60
15879;DHT22;61999;51.514;14.614;2022-12-29T06:05:06;3.20;64.00
15879;DHT22;61999;51.514;14.614;2022-12-29T06:07:34;3.00;63.90
15879;DHT22;61999;51.514;14.614;2022-12-29T06:10:05;3.00;64.30
15879;DHT22;61999;51.514;14.614;2022-12-29T06:12:33;3.20;64.10
15879;DHT22;61999;51.514;14.614;2022-12-29T06:15:01;3.10;63.80
15879;DHT22;61999;51.514;14.614;2022-12-29T06:17:29;3.10;64.00
15879;DHT22;61999;51.514;14.614;2022-12-29T06:19:57;2.90;63.80
15879;DHT22;61999;51.514;14.614;2022-12-29T06:22:25;2.90;64.50
15879;DHT22;61999;51.514;14.614;2022-12-29T06:24:53;3.00;64.10
15879;DHT22;61999;51.514;14.614;2022-12-29T06:27:24;3.00;64.30
15879;DHT22;61999;51.514;14.614;2022-12-29T06:29:53;2.90;64.40
15879;DHT22;61999;51.514;14.614;2022-12-29T06:32:21;2.80;64.40
15879;DHT22;61999;51.514;14.614;2022-12-29T06:34:49;2.90;64.60
15879;DHT22;61999;51.514;14.614;2022-12-29T06:37:17;2.90;64.70
15879;DHT22;61999;51.514;14.614;2022-12-29T06:39:45;3.00;65.00
15879;DHT22;61999;51.514;14.614;2022-12-29T06:42:13;3.00;64.90
15879;DHT22;61999;51.514;14.614;2022-12-29T06:44:42;3.10;64.40
15879;DHT22;61999;51.514;14.614;2022-12-29T06:47:10;3.10;64.10
15879;DHT22;61999;51.514;14.614;2022-12-29T06:49:38;3.00;64.10
15879;DHT22;61999;51.514;14.614;2022-12-29T06:52:06;3.10;63.70
15879;DHT22;61999;51.514;14.614;2022-12-29T06:54:38;3.10;63.70
15879;DHT22;61999;51.514;14.614;2022-12-29T06:57:06;2.90;63.80
15879;DHT22;61999;51.514;14.614;2022-12-29T06:59:34;3.00;63.50
15879;DHT22;61999;51.514;14.614;2022-12-29T07:02:03;3.00;63.90
15879;DHT22;61999;51.514;14.614;2022-12-29T07:04:32;3.10;63.40
15879;DHT22;61999;51.514;14.614;2022-12-29T07:07:00;3.20;63.00
15879;DHT22;61999;51.514;14.614;2022-12-29T07:09:27;3.10;62.80
15879;DHT22;61999;51.514;14.614;2022-12-29T07:11:55;3.10;63.00
15879;DHT22;61999;51.514;14.614;2022-12-29T07:14:23;3.20;62.50
15879;DHT22;61999;51.514;14.614;2022-12-29T07:16:51;3.20;62.40
15879;DHT22;61999;51.514;14.614;2022-12-29T07:19:21;3.20;62.30
15879;DHT22;61999;51.514;14.614;2022-12-29T07:21:49;3.20;62.30
15879;DHT22;61999;51.514;14.614;2022-12-29T07:24:17;3.30;62.00
15879;DHT22;61999;51.514;14.614;2022-12-29T07:26:45;3.40;61.70
15879;DHT22;61999;51.514;14.614;2022-12-29T07:29:12;3.50;61.50
15879;DHT22;61999;51.514;14.614;2022-12-29T07:31:41;3.30;61.50
15879;DHT22;61999;51.514;14.614;2022-12-29T07:34:09;3.30;61.90
15879;DHT22;61999;51.514;14.614;2022-12-29T07:36:38;3.30;62.10
15879;DHT22;61999;51.514;14.614;2022-12-29T07:39:06;3.30;62.10
15879;DHT22;61999;51.514;14.614;2022-12-29T07:41:34;3.20;62.30
15879;DHT22;61999;51.514;14.614;2022-12-29T07:44:02;3.20;62.50
15879;DHT22;61999;51.514;14.614;2022-12-29T07:46:31;3.10;62.80
15879;DHT22;61999;51.514;14.614;2022-12-29T07:48:59;3.20;62.40
15879;DHT22;61999;51.514;14.614;2022-12-29T07:51:27;3.20;62.80
15879;DHT22;61999;51.514;14.614;2022-12-29T07:53:56;3.20;62.60
15879;DHT22;61999;51.514;14.614;2022-12-29T07:56:25;3.10;62.90
15879;DHT22;61999;51.514;14.614;2022-12-29T07:58:53;3.30;62.50
15879;DHT22;61999;51.514;14.614;2022-12-29T08:01:21;3.30;62.40
15879;DHT22;61999;51.514;14.614;2022-12-29T08:03:50;3.30;62.30
15879;DHT22;61999;51.514;14.614;2022-12-29T08:06:22;3.40;62.10
15879;DHT22;61999;51.514;14.614;2022-12-29T08:08:50;3.40;61.70
15879;DHT22;61999;51.514;14.614;2022-12-29T08:11:19;3.50;61.60
15879;DHT22;61999;51.514;14.614;2022-12-29T08:13:47;3.60;61.50
15879;DHT22;61999;51.514;14.614;2022-12-29T08:16:15;3.70;61.40
15879;DHT22;61999;51.514;14.614;2022-12-29T08:18:43;3.80;60.70
15879;DHT22;61999;51.514;14.614;2022-12-29T08:21:11;3.50;61.60
15879;DHT22;61999;51.514;14.614;2022-12-29T08:23:40;3.60;61.80
15879;DHT22;61999;51.514;14.614;2022-12-29T08:26:08;3.70;61.20
15879;DHT22;61999;51.514;14.614;2022-12-29T08:28:37;3.80;61.10
15879;DHT22;61999;51.514;14.614;2022-12-29T08:31:05;3.90;61.00
15879;DHT22;61999;51.514;14.614;2022-12-29T08:33:33;4.10;60.20
15879;DHT22;61999;51.514;14.614;2022-12-29T08:36:02;4.10;60.20
15879;DHT22;61999;51.514;14.614;2022-12-29T08:38:32;4.00;60.60
15879;DHT22;61999;51.514;14.614;2022-12-29T08:41:00;4.10;60.20
15879;DHT22;61999;51.514;14.614;2022-12-29T08:43:29;4.40;59.30
15879;DHT22;61999;51.514;14.614;2022-12-29T08:45:59;4.50;59.10
15879;DHT22;61999;51.514;14.614;2022-12-29T08:48:27;4.40;58.80
15879;DHT22;61999;51.514;14.614;2022-12-29T08:50:55;4.30;59.50
15879;DHT22;61999;51.514;14.614;2022-12-29T08:53:23;4.50;58.90
15879;DHT22;61999;51.514;14.614;2022-12-29T08:55:56;4.50;58.90
15879;DHT22;61999;51.514;14.614;2022-12-29T08:58:29;4.40;59.10
15879;DHT22;61999;51.514;14.614;2022-12-29T09:00:59;4.50;58.80
15879;DHT22;61999;51.514;14.614;2022-12-29T09:03:27;4.60;58.50
15879;DHT22;61999;51.514;14.614;2022-12-29T09:06:16;4.60;58.40
15879;DHT22;61999;51.514;14.614;2022-12-29T09:08:45;4.40;58.80
15879;DHT22;61999;51.514;14.614;2022-12-29T09:11:15;4.20;59.20
15879;DHT22;61999;51.514;14.614;2022-12-29T09:13:46;4.50;58.60
15879;DHT22;61999;51.514;14.614;2022-12-29T09:16:17;4.50;58.60
15879;DHT22;61999;51.514;14.614;2022-12-29T09:18:45;4.40;58.90
15879;DHT22;61999;51.514;14.614;2022-12-29T09:21:13;4.50;58.50
15879;DHT22;61999;51.514;14.614;2022-12-29T09:23:41;4.50;58.40
15879;DHT22;61999;51.514;14.614;2022-12-29T09:26:09;4.40;59.00
15879;DHT22;61999;51.514;14.614;2022-12-29T09:28:37;4.60;58.60
15879;DHT22;61999;51.514;14.614;2022-12-29T09:31:06;4.50;59.00
15879;DHT22;61999;51.514;14.614;2022-12-29T09:33:35;4.70;58.40
15879;DHT22;61999;51.514;14.614;2022-12-29T09:36:04;4.80;58.20
15879;DHT22;61999;51.514;14.614;2022-12-29T09:38:32;4.70;58.50
15879;DHT22;61999;51.514;14.614;2022-12-29T09:41:05;4.70;58.50
15879;DHT22;61999;51.514;14.614;2022-12-29T09:43:55;4.80;58.30
15879;DHT22;61999;51.514;14.614;2022-12-29T09:46:33;4.80;58.50
15879;DHT22;61999;51.514;14.614;2022-12-29T09:49:16;5.10;58.10
15879;DHT22;61999;51.514;14.614;2022-12-29T09:51:52;5.20;57.70
15879;DHT22;61999;51.514;14.614;2022-12-29T09:57:23;5.70;56.30
15879;DHT22;61999;51.514;14.614;2022-12-29T09:59:57;5.90;55.90
15879;DHT22;61999;51.514;14.614;2022-12-29T10:02:36;5.90;55.90
15879;DHT22;61999;51.514;14.614;2022-12-29T10:05:27;5.90;56.70
15879;DHT22;61999;51.514;14.614;2022-12-29T10:08:20;6.10;56.10
15879;DHT22;61999;51.514;14.614;2022-12-29T10:11:05;6.60;54.60
15879;DHT22;61999;51.514;14.614;2022-12-29T10:13:43;6.80;54.00
15879;DHT22;61999;51.514;14.614;2022-12-29T10:16:39;6.90;53.30
15879;DHT22;61999;51.514;14.614;2022-12-29T10:19:26;6.90;53.70
15879;DHT22;61999;51.514;14.614;2022-12-29T10:22:16;7.00;53.70
15879;DHT22;61999;51.514;14.614;2022-12-29T10:24:55;7.10;54.20
15879;DHT22;61999;51.514;14.614;2022-12-29T10:27:31;7.50;53.80
15879;DHT22;61999;51.514;14.614;2022-12-29T10:30:02;7.70;53.30
15879;DHT22;61999;51.514;14.614;2022-12-29T10:32:35;8.00;51.40
15879;DHT22;61999;51.514;14.614;2022-12-29T10:35:12;8.20;51.30
15879;DHT22;61999;51.514;14.614;2022-12-29T10:37:49;8.60;50.70
15879;DHT22;61999;51.514;14.614;2022-12-29T10:40:27;8.80;50.80
15879;DHT22;61999;51.514;14.614;2022-12-29T10:43:02;9.00;49.70
15879;DHT22;61999;51.514;14.614;2022-12-29T10:45:43;9.10;49.00
15879;DHT22;61999;51.514;14.614;2022-12-29T10:48:18;9.20;49.60
15879;DHT22;61999;51.514;14.614;2022-12-29T10:50:50;9.10;50.10
15879;DHT22;61999;51.514;14.614;2022-12-29T10:53:33;9.40;49.10
15879;DHT22;61999;51.514;14.614;2022-12-29T10:56:15;9.90;48.50
15879;DHT22;61999;51.514;14.614;2022-12-29T10:58:54;10.10;47.70
15879;DHT22;61999;51.514;14.614;2022-12-29T11:01:30;10.20;47.40
15879;DHT22;61999;51.514;14.614;2022-12-29T11:04:04;10.30;47.50
15879;DHT22;61999;51.514;14.614;2022-12-29T11:06:38;10.40;48.00
15879;DHT22;61999;51.514;14.614;2022-12-29T11:09:13;10.60;48.40
15879;DHT22;61999;51.514;14.614;2022-12-29T11:11:47;10.80;47.10
15879;DHT22;61999;51.514;14.614;2022-12-29T11:14:19;11.40;45.20
15879;DHT22;61999;51.514;14.614;2022-12-29T11:16:57;11.60;45.30
15879;DHT22;61999;51.514;14.614;2022-12-29T11:19:28;11.80;44.70
15879;DHT22;61999;51.514;14.614;2022-12-29T11:22:13;11.80;44.70
15879;DHT22;61999;51.514;14.614;2022-12-29T11:24:52;11.80;43.60
15879;DHT22;61999;51.514;14.614;2022-12-29T11:27:23;11.60;43.90
15879;DHT22;61999;51.514;14.614;2022-12-29T11:29:54;11.40;44.60
15879;DHT22;61999;51.514;14.614;2022-12-29T11:32:24;11.20;44.40
15879;DHT22;61999;51.514;14.614;2022-12-29T11:34:54;11.10;44.60
15879;DHT22;61999;51.514;14.614;2022-12-29T11:37:28;10.90;43.80
15879;DHT22;61999;51.514;14.614;2022-12-29T11:40:04;10.70;44.20
15879;DHT22;61999;51.514;14.614;2022-12-29T11:42:37;10.30;44.60
15879;DHT22;61999;51.514;14.614;2022-12-29T11:45:15;10.00;44.50
15879;DHT22;61999;51.514;14.614;2022-12-29T11:47:47;9.40;45.70
15879;DHT22;61999;51.514;14.614;2022-12-29T11:50:19;8.80;47.30
15879;DHT22;61999;51.514;14.614;2022-12-29T11:52:50;8.50;47.40
15879;DHT22;61999;51.514;14.614;2022-12-29T11:55:28;8.20;48.40
15879;DHT22;61999;51.514;14.614;2022-12-29T11:58:01;8.10;48.90
15879;DHT22;61999;51.514;14.614;2022-12-29T12:00:34;8.10;48.70
15879;DHT22;61999;51.514;14.614;2022-12-29T12:03:13;8.20;48.40
15879;DHT22;61999;51.514;14.614;2022-12-29T12:05:48;8.00;49.00
15879;DHT22;61999;51.514;14.614;2022-12-29T12:08:31;7.90;49.40
15879;DHT22;61999;51.514;14.614;2022-12-29T12:11:09;7.70;49.60
15879;DHT22;61999;51.514;14.614;2022-12-29T12:13:43;7.60;50.20
15879;DHT22;61999;51.514;14.614;2022-12-29T12:16:24;7.40;50.70
15879;DHT22;61999;51.514;14.614;2022-12-29T12:19:00;7.30;50.70
15879;DHT22;61999;51.514;14.614;2022-12-29T12:21:36;7.30;50.80
15879;DHT22;61999;51.514;14.614;2022-12-29T12:24:35;7.30;50.60
15879;DHT22;61999;51.514;14.614;2022-12-29T12:27:13;7.40;50.60
15879;DHT22;61999;51.514;14.614;2022-12-29T12:29:50;7.40;50.70
15879;DHT22;61999;51.514;14.614;2022-12-29T12:32:29;7.50;50.90
15879;DHT22;61999;51.514;14.614;2022-12-29T12:35:11;7.60;50.50
15879;DHT22;61999;51.514;14.614;2022-12-29T12:37:56;7.70;50.40
15879;DHT22;61999;51.514;14.614;2022-12-29T12:40:53;7.50;50.30
15879;DHT22;61999;51.514;14.614;2022-12-29T12:43:37;7.80;49.90
15879;DHT22;61999;51.514;14.614;2022-12-29T12:46:28;7.50;50.10
15879;DHT22;61999;51.514;14.614;2022-12-29T12:49:34;7.30;50.90
15879;DHT22;61999;51.514;14.614;2022-12-29T12:52:32;7.20;51.30
15879;DHT22;61999;51.514;14.614;2022-12-29T12:55:36;6.90;52.10
15879;DHT22;61999;51.514;14.614;2022-12-29T12:58:20;7.00;52.20
15879;DHT22;61999;51.514;14.614;2022-12-29T13:01:10;7.20;51.60
15879;DHT22;61999;51.514;14.614;2022-12-29T13:03:56;7.30;51.30
15879;DHT22;61999;51.514;14.614;2022-12-29T13:06:45;7.20;51.70
15879;DHT22;61999;51.514;14.614;2022-12-29T13:09:30;7.40;51.30
15879;DHT22;61999;51.514;14.614;2022-12-29T13:12:18;7.50;51.10
15879;DHT22;61999;51.514;14.614;2022-12-29T13:15:03;7.30;51.40
15879;DHT22;61999;51.514;14.614;2022-12-29T13:17:46;7.20;51.60
15879;DHT22;61999;51.514;14.614;2022-12-29T13:20:29;7.20;51.50
15879;DHT22;61999;51.514;14.614;2022-12-29T13:23:10;7.30;51.50
15879;DHT22;61999;51.514;14.614;2022-12-29T13:25:51;7.30;51.30
15879;DHT22;61999;51.514;14.614;2022-12-29T13:28:31;7.40;51.20
15879;DHT22;61999;51.514;14.614;2022-12-29T13:31:07;7.50;51.20
15879;DHT22;61999;51.514;14.614;2022-12-29T13:33:47;7.60;50.70
15879;DHT22;61999;51.514;14.614;2022-12-29T13:36:25;7.50;50.90
15879;DHT22;61999;51.514;14.614;2022-12-29T13:39:02;7.50;50.90
15879;DHT22;61999;51.514;14.614;2022-12-29T13:41:35;7.60;50.90
15879;DHT22;61999;51.514;14.614;2022-12-29T13:44:09;7.50;50.90
15879;DHT22;61999;51.514;14.614;2022-12-29T13:46:44;7.40;51.00
15879;DHT22;61999;51.514;14.614;2022-12-29T13:49:17;7.60;50.70
15879;DHT22;61999;51.514;14.614;2022-12-29T13:51:49;7.40;51.00
15879;DHT22;61999;51.514;14.614;2022-12-29T13:54:27;7.20;51.50
15879;DHT22;61999;51.514;14.614;2022-12-29T13:57:10;7.00;51.80
15879;DHT22;61999;51.514;14.614;2022-12-29T13:59:50;6.90;52.20
15879;DHT22;61999;51.514;14.614;2022-12-29T14:02:31;6.90;52.60
15879;DHT22;61999;51.514;14.614;2022-12-29T14:05:29;6.90;52.60
15879;DHT22;61999;51.514;14.614;2022-12-29T14:07:59;6.90;52.50
15879;DHT22;61999;51.514;14.614;2022-12-29T14:10:33;6.70;53.00
15879;DHT22;61999;51.514;14.614;2022-12-29T14:13:05;6.60;53.50
15879;DHT22;61999;51.514;14.614;2022-12-29T14:15:39;6.60;53.60
15879;DHT22;61999;51.514;14.614;2022-12-29T14:18:14;6.50;53.70
15879;DHT22;61999;51.514;14.614;2022-12-29T14:20:51;6.60;54.00
15879;DHT22;61999;51.514;14.614;2022-12-29T14:23:35;6.60;54.00
15879;DHT22;61999;51.514;14.614;2022-12-29T14:26:12;6.60;54.10
15879;DHT22;61999;51.514;14.614;2022-12-29T14:28:44;6.50;54.20
15879;DHT22;61999;51.514;14.614;2022-12-29T14:31:35;6.60;54.20
15879;DHT22;61999;51.514;14.614;2022-12-29T14:34:29;6.70;54.00
15879;DHT22;61999;51.514;14.614;2022-12-29T14:37:23;6.70;54.20
15879;DHT22;61999;51.514;14.614;2022-12-29T14:40:04;6.60;54.30
15879;DHT22;61999;51.514;14.614;2022-12-29T14:42:34;6.40;54.60
15879;DHT22;61999;51.514;14.614;2022-12-29T14:45:06;6.40;55.00
15879;DHT22;61999;51.514;14.614;2022-12-29T14:47:52;6.40;54.90
15879;DHT22;61999;51.514;14.614;2022-12-29T14:50:23;6.60;54.70
15879;DHT22;61999;51.514;14.614;2022-12-29T14:53:05;6.60;54.50
15879;DHT22;61999;51.514;14.614;2022-12-29T14:55:38;6.60;54.50
15879;DHT22;61999;51.514;14.614;2022-12-29T14:58:14;6.60;54.30
15879;DHT22;61999;51.514;14.614;2022-12-29T15:00:46;6.70;54.50
15879;DHT22;61999;51.514;14.614;2022-12-29T15:03:20;6.70;54.40
15879;DHT22;61999;51.514;14.614;2022-12-29T15:05:52;6.70;54.30
15879;DHT22;61999;51.514;14.614;2022-12-29T15:08:25;6.60;54.20
15879;DHT22;61999;51.514;14.614;2022-12-29T15:11:00;6.60;54.30
15879;DHT22;61999;51.514;14.614;2022-12-29T15:13:35;6.60;54.50
15879;DHT22;61999;51.514;14.614;2022-12-29T15:16:05;6.50;54.70
15879;DHT22;61999;51.514;14.614;2022-12-29T15:18:48;6.60;54.30
15879;DHT22;61999;51.514;14.614;2022-12-29T15:21:17;6.70;54.10
15879;DHT22;61999;51.514;14.614;2022-12-29T15:23:52;6.60;54.10
15879;DHT22;61999;51.514;14.614;2022-12-29T15:26:22;6.50;54.40
15879;DHT22;61999;51.514;14.614;2022-12-29T15:28:52;6.60;54.20
15879;DHT22;61999;51.514;14.614;2022-12-29T15:31:22;6.60;53.90
15879;DHT22;61999;51.514;14.614;2022-12-29T15:34:07;6.70;53.80
15879;DHT22;61999;51.514;14.614;2022-12-29T15:36:41;6.70;53.60
15879;DHT22;61999;51.514;14.614;2022-12-29T15:39:19;6.60;53.80
15879;DHT22;61999;51.514;14.614;2022-12-29T15:41:55;6.60;53.80
15879;DHT22;61999;51.514;14.614;2022-12-29T15:44:30;6.60;53.80
15879;DHT22;61999;51.514;14.614;2022-12-29T15:47:05;6.50;54.30
15879;DHT22;61999;51.514;14.614;2022-12-29T15:49:41;6.40;54.30
15879;DHT22;61999;51.514;14.614;2022-12-29T15:52:10;6.50;54.50
15879;DHT22;61999;51.514;14.614;2022-12-29T15:54:48;6.40;55.30
15879;DHT22;61999;51.514;14.614;2022-12-29T15:57:22;6.40;54.40
15879;DHT22;61999;51.514;14.614;2022-12-29T15:59:52;6.40;54.50
15879;DHT22;61999;51.514;14.614;2022-12-29T16:02:21;6.40;54.60
15879;DHT22;61999;51.514;14.614;2022-12-29T16:04:51;6.30;54.70
15879;DHT22;61999;51.514;14.614;2022-12-29T16:07:52;6.20;54.70
15879;DHT22;61999;51.514;14.614;2022-12-29T16:10:26;6.10;54.90
15879;DHT22;61999;51.514;14.614;2022-12-29T16:13:05;6.20;54.60
15879;DHT22;61999;51.514;14.614;2022-12-29T16:15:44;6.30;54.20
15879;DHT22;61999;51.514;14.614;2022-12-29T16:18:20;6.50;53.80
15879;DHT22;61999;51.514;14.614;2022-12-29T16:20:53;6.50;53.80
15879;DHT22;61999;51.514;14.614;2022-12-29T16:23:25;6.50;53.80